Diamond Orchid — 9VNH4 — position and weather

sailwx.info

Track history (hours):
 
Tides and Currents Weather Stations Pressure Air Temp Water Temp Dewpoint Dewpoint Depression Visibility Wind Speed Wind Dir Waves Ship Positions

Diamond Orchid

Last reported at 2015-Jun-21 08:33 UTC. Time now 2015-Jul-06 13:30 UTC.
Position N 02°01' E 102°11'.
Warning: this ship's position is 15 days out of date.

Length 144 m; draft 8.1 m.

Type: Tanker. MMSI: 565789000.

Date/timePositionNaut miles runAvg speedWind from/ knotsBaromVisibWave heightAir tempDewpointWater temp
2015-Jun-21 08:33N 02°01' E 102°11'1514.2
2015-Jun-21 07:31N 01°54' E 102°24'1313.9
2015-Jun-21 06:33N 01°48' E 102°36'72 4.8
2015-Jun-20 15:33N 01°14' E 103°39'5 4.5
2015-Jun-20 14:24N 01°10' E 103°42'5 5.5
2015-Jun-20 13:33N 01°10' E 103°47'1212.0
2015-Jun-20 12:31N 01°15' E 103°58'  
2015-Jun-15 08:32N 22°22' E 119°49'1313.2
2015-Jun-15 07:33N 22°35' E 119°50'1613.2
2015-Jun-15 06:21N 22°51' E 119°50'11711.9
2015-Jun-14 20:32N 24°45' E 120°18'66913.1
2015-Jun-12 17:32N 33°26' E 128°17'1313.2
2015-Jun-12 16:33N 33°38' E 128°24'1413.1
2015-Jun-12 15:30N 33°50' E 128°33'1313.1
2015-Jun-12 14:32N 34°01' E 128°40'1312.8
2015-Jun-12 13:33N 34°12' E 128°48'  
Track history (hours):
 
Tides and Currents Weather Stations Pressure Air Temp Water Temp Dewpoint Dewpoint Depression Visibility Wind Speed Wind Dir Waves Ship Positions

Diamond Orchid

Last reported at 2015-Jun-21 08:33 UTC. Time now 2015-Jul-06 13:30 UTC.
Position N 02°01' E 102°11'.
Warning: this ship's position is 15 days out of date.

Length 144 m; draft 8.1 m.

Type: Tanker. MMSI: 565789000.

Date/timePositionNaut miles runAvg speedWind from/ knotsBaromVisibWave heightAir tempDewpointWater temp
2015-Jun-21 08:33N 02°01' E 102°11'1514.2
2015-Jun-21 07:31N 01°54' E 102°24'1313.9
2015-Jun-21 06:33N 01°48' E 102°36'72 4.8
2015-Jun-20 15:33N 01°14' E 103°39'5 4.5
2015-Jun-20 14:24N 01°10' E 103°42'5 5.5
2015-Jun-20 13:33N 01°10' E 103°47'1212.0
2015-Jun-20 12:31N 01°15' E 103°58'  
2015-Jun-15 08:32N 22°22' E 119°49'1313.2
2015-Jun-15 07:33N 22°35' E 119°50'1613.2
2015-Jun-15 06:21N 22°51' E 119°50'11711.9
2015-Jun-14 20:32N 24°45' E 120°18'66913.1
2015-Jun-12 17:32N 33°26' E 128°17'1313.2
2015-Jun-12 16:33N 33°38' E 128°24'1413.1
2015-Jun-12 15:30N 33°50' E 128°33'1313.1
2015-Jun-12 14:32N 34°01' E 128°40'1312.8
2015-Jun-12 13:33N 34°12' E 128°48'  

Dump ship's entire track history